Rechitsa, Belarus
Current Conditions -  °F | °C
As of 2:00 AM on Tuesday 23 Dec 2014 (Local Time) from UMGG Reporting Station
Light Rain Light Rain  
Wind Chill: 29°   Ceiling: 700
Heat Index: 37°   Visibility: 4mi
Dew Point: 37°   Wind: 13mph
Humidity: 100%   Direction: 240°WSW
Pressure: 29.35"   Gusts: NA
Location:  52.37°N, 30.4°E
Report Text: UMGG 230000Z 24006MPS 7000 -RA OVC007 03/03 Q0994 R28/510750NOSIG
Loading
Personal Weather Stations






























Interactive Weather Map New forecast layout! Learn more

10-Day Weather Forecast

Advertisements
Track Severe Weather on mobile